x

Silver Bay, Mn (slvm5) Weather Station

9:40am - Fri 25th Jul 2014 All times are CDT. -5 hours from GMT.

  • Wind
    2mph, 9mph gusts
  • Air Temp 57°f
  • Sea Pressure 1010.2mb
  • Silver Bay, Mn
  • Silver Bay, Mn

More Historic Weather Station data

Upgrade to MSW Pro to gain access to the past 30 days of data for over 8000 Wavebouys and Weather Stations around the globe.

Join Pro

Comparision Forecast

View Surf forecast
   
Fri 07/25 9:40am 2 9 mph 1010.2mb 57f
9:30am 7 9 mph 1009.8mb 57f
9:20am 5 7 mph 1009.8mb 59f
9:10am 2 7 mph 1009.8mb 60f
9:00am 5 8 mph 1009.8mb 58f
8:40am 6 9 mph 1010.2mb 57f
8:30am 5 7 mph 1010.2mb 57f
8:20am 6 8 mph 1010.2mb 55f
8:10am 5 8 mph 1010.2mb 57f
8:00am 7 8 mph 1010.2mb 56f
7:40am 6 7 mph 1010.5mb 53f
7:30am 3 5 mph 1010.5mb 53f
7:20am 1 5 mph 1010.8mb 54f
7:10am  -  6 mph 1011.2mb 54f
7:00am 3 8 mph 1011.2mb 55f
6:40am 7 8 mph 1010.5mb 55f
6:30am 7 8 mph 1010.5mb 54f
6:20am 5 6 mph 1010.5mb 55f
6:10am 3
mph
1010.8mb 54f
6:00am 2 5 mph 1010.8mb 53f
5:40am 3 7 mph 1010.8mb 55f
5:30am 5 7 mph 1010.8mb 55f
5:20am 3 9 mph 1010.8mb 54f
5:10am 6 11 mph 1010.8mb 54f
5:00am 6 9 mph 1010.8mb 53f
4:40am  -  5 mph 1011.2mb 54f
4:30am  -  3 mph 1011.2mb 54f
4:20am  -  3 mph 1011.5mb 54f
4:10am 2 5 mph 1011.5mb 53f
4:00am 2 6 mph 1011.2mb 54f
3:40am 5 7 mph 1011.2mb 55f
3:30am 5 6 mph 1011.2mb 56f
3:20am 5 9 mph 1011.2mb 56f
3:10am 6 9 mph 1011.2mb 56f
3:00am 6 10 mph 1011.2mb 56f
2:40am 5 8 mph 1011.9mb 57f
2:30am 6 8 mph 1012.2mb 57f
2:20am 6 7 mph 1012.5mb 54f
2:10am 5 8 mph 1012.2mb 57f
2:00am 5 7 mph 1012.5mb 57f
1:40am 6 8 mph 1012.9mb 57f
1:30am 5 8 mph 1012.9mb 57f
1:20am 5 7 mph 1012.9mb 57f
1:10am 5 7 mph 1012.9mb 56f
1:00am 2 5 mph 1013.2mb 56f
12:40am  -  6 mph 1013.2mb 56f
12:30am 5 8 mph 1013.2mb 56f
12:20am 6 8 mph 1013.2mb 56f
12:10am 5 8 mph 1012.9mb 56f
12:00am 6 8 mph 1012.9mb 56f
Thu 07/24 11:40pm 6 8 mph 1012.9mb 54f
11:30pm 5 7 mph 1012.9mb 55f
11:20pm 3 10 mph 1012.9mb 53f
11:10pm 7 8 mph 1012.9mb 53f
11:00pm  -  6 mph 1013.5mb 56f
10:40pm 3 7 mph 1013.5mb 55f
10:30pm 3 6 mph 1013.2mb 55f
10:20pm 3 6 mph 1013.5mb 56f
10:10pm 2 5 mph 1013.5mb 56f
10:00pm 3 6 mph 1013.5mb 56f
9:40pm  -  3 mph 1013.9mb 58f
9:30pm 3 5 mph 1013.9mb 58f
9:20pm  -  5 mph 1014.2mb 57f
9:10pm 1 3 mph 1014.2mb 58f
9:00pm  -  mph 1014.2mb 58f
8:40pm  -  mph 1014.6mb 59f
8:30pm  -  mph 1014.9mb 58f
8:20pm  -  mph 1014.6mb 58f
8:10pm  -  1 mph 1014.6mb 57f
8:00pm 3 6 mph 1014.6mb 58f
7:40pm 5 9 mph 1014.2mb 60f
7:30pm 6 10 mph 1014.2mb 60f
7:20pm 7 10 mph 1013.9mb 60f
7:10pm 7 9 mph 1013.9mb 58f
7:00pm 2 5 mph 1013.5mb 62f
6:40pm 6 7 mph 1013.9mb 57f
6:30pm 6 7 mph 1013.9mb 58f
6:20pm 6 7 mph 1013.9mb 58f
6:10pm 6 8 mph 1014.2mb 57f
6:00pm 8 9 mph 1014.2mb 58f
5:40pm 7
mph
1014.6mb 60f
5:30pm 3
mph
1014.6mb 61f
5:20pm 3 6 mph 1014.6mb 60f
5:10pm  -  mph 1014.9mb 62f
5:00pm  -  mph 1014.9mb 62f
4:40pm 3 5 mph 1015.2mb 59f
4:30pm 5 6 mph 1015.6mb 59f
4:20pm 5 6 mph 1015.9mb 58f
4:10pm 3 5 mph 1016.3mb 57f
4:00pm  -  3 mph 1016.3mb 56f
3:40pm  -  mph 1016.9mb 55f
3:30pm  -  2 mph 1016.9mb 56f
3:20pm 2 3 mph 1016.9mb 54f
3:10pm 3 6 mph 1017.3mb 54f
3:00pm 6 7 mph 1017.3mb 54f
2:40pm 3 5 mph 1017.6mb 55f
2:30pm 3
mph
1017.3mb 56f
2:20pm 1 3 mph 1017.6mb 56f
2:10pm 2 3 mph 1017.6mb 57f
2:00pm 3
mph
1017.6mb 59f
1:40pm 3 5 mph 1017.9mb 57f
1:30pm 3
mph
1018.3mb 56f
1:20pm 3
mph
1018.3mb 56f
1:10pm 2 3 mph 1018.6mb 54f
1:00pm 5
mph
1019mb 55f
12:40pm 3 5 mph 1019.3mb 55f
12:30pm 2 6 mph 1019.3mb 53f
12:20pm 6 7 mph 1019.3mb 53f
12:10pm 7
mph
1019.3mb 53f
12:00pm 7 8 mph 1019.3mb 51f
11:40am 6 7 mph 1019.3mb 53f
11:30am 6 7 mph 1019.3mb 53f
11:20am 6 7 mph 1019.6mb 53f
11:10am 6 7 mph 1019.6mb 54f
11:00am 5 8 mph 1020mb 52f
10:40am 6 8 mph 1020.3mb 52f
10:30am 6 7 mph 1020.3mb 51f
10:20am 5 7 mph 1020.3mb 54f
10:10am 5
mph
1020.7mb 56f
10:00am 1 5 mph 1020.3mb 53f
9:50am 3 5 mph 1020.7mb 50f
9:40am 5
mph
1020.7mb 49f
9:30am  -  mph 1020.7mb 52f
9:20am  -  mph 1020.7mb 53f
9:10am  -  mph 1020.7mb 54f
9:00am  -  1 mph 1021mb 55f
8:50am  -  3 mph 1021mb 51f
8:40am 2 3 mph 1021mb 54f
8:30am  -  mph 1021mb 53f
8:20am  -  mph 1021mb 50f
8:10am  -  mph 1021.3mb 53f
8:00am  -  5 mph 1021.3mb 51f
7:50am 3 5 mph 1021.3mb 47f
7:40am  -  5 mph 1021.3mb 53f
7:30am  -  3 mph 1021.3mb 54f
7:20am  -  mph 1021.3mb 52f
7:10am  -  3 mph 1021.3mb 50f
7:00am  -  mph 1021.3mb 49f
6:50am  -  mph 1021.7mb 53f
6:40am  -  mph 1021.7mb 52f
6:30am  -  mph 1021.7mb 54f
6:20am  -  mph 1021.7mb 55f
6:10am  -  mph 1021.7mb 53f
6:00am  -  mph 1021.3mb 53f
5:50am  -  3 mph 1021.7mb 53f
5:40am  -  2 mph 1021.7mb 54f
5:30am  -  3 mph 1021.7mb 53f
5:20am 3 5 mph 1021.7mb 52f
5:10am 3
mph
1021.7mb 52f
5:00am  -  mph 1021.7mb 53f
4:50am 2 5 mph 1021.7mb 52f
4:40am 3 5 mph 1022mb 51f
4:30am  -  mph 1021.7mb 51f
4:20am  -  mph 1021.7mb 50f
4:10am  -  mph 1021.7mb 51f
4:00am  -  mph 1021.7mb 50f
3:50am  -  mph 1021.3mb 49f
3:40am  -  mph 1021.7mb 48f
3:30am  -  mph 1021.7mb 46f
3:20am  -  2 mph 1021.7mb 47f
3:10am 2
mph
1021.3mb 46f
3:00am  -  mph 1021.7mb 45f
2:50am  -  mph 1021.3mb 45f
2:40am  -  mph 1021.7mb 44f
2:30am  -  mph 1021.7mb 44f
2:20am  -  mph 1021.7mb 44f
2:10am  -  mph 1021.7mb 44f
2:00am  -  mph 1021.7mb 44f
1:50am  -  mph 1021.7mb 47f
1:40am  -  mph 1021.7mb 49f
1:30am  -  mph 1021.7mb 49f
1:20am  -  mph 1021.7mb 50f
1:10am  -  mph 1022mb 51f
1:00am  -  mph 1022mb 50f
12:50am  -  2 mph 1022mb 51f
12:40am 1 2 mph 1022mb 49f
12:30am  -  mph 1022mb 49f
12:20am  -  mph 1022.4mb 49f
12:10am  -  3 mph 1022.4mb 48f
12:00am 2 3 mph 1022.4mb 47f
Wed 07/23 11:50pm  -  3 mph 1022mb 49f
11:40pm 2 5 mph 1022mb 49f
11:30pm  -  1 mph 1022mb 48f
11:20pm  -  5 mph 1022mb 49f
11:10pm 3 6 mph 1022mb 50f
11:00pm 2 3 mph 1021.7mb 49f
10:50pm  -  mph 1022mb 51f
10:40pm  -  3 mph 1021.7mb 51f
10:30pm  -  mph 1021.7mb 51f
10:20pm  -  6 mph 1022mb 51f
10:10pm  -  3 mph 1022mb 51f
10:00pm  -  2 mph 1022mb 51f
9:50pm  -  3 mph 1022mb 50f
9:40pm 2 6 mph 1022mb 50f
9:30pm 5 6 mph 1022mb 50f
9:20pm 5 7 mph 1022mb 54f
9:10pm 5 7 mph 1022mb 56f
9:00pm 6 7 mph 1022mb 55f
8:50pm 5 7 mph 1022mb 54f
8:40pm 5 8 mph 1022mb 54f
8:30pm 3 7 mph 1022mb 53f
8:20pm 6 8 mph 1022mb 54f
8:10pm 5 9 mph 1022.4mb 54f
8:00pm 3 8 mph 1022.4mb 54f
7:50pm 3 8 mph 1022.4mb 53f
7:40pm 5 9 mph 1022.4mb 53f
7:30pm 3 10 mph 1022.4mb 54f
7:20pm 2 10 mph 1022.4mb 54f
7:10pm 7 9 mph 1022.4mb 51f
7:00pm 7 9 mph 1022.4mb 53f
6:50pm 2 15 mph 1022.4mb 55f
6:40pm 13
mph
1022.4mb 52f
6:30pm  -  6 mph 1022.4mb 58f
6:20pm 6
mph
1022.4mb 58f
6:10pm  -  11 mph 1022.4mb 55f
6:00pm 6 14 mph 1022.4mb 54f
5:40pm 3 8 mph 1022.7mb 54f
5:30pm 6 11 mph 1022.7mb 55f
5:20pm 8 10 mph 1022.7mb 52f
5:10pm 3 6 mph 1022.7mb 55f
5:00pm 3 7 mph 1023mb 55f
4:50pm 6 9 mph 1023mb 53f
4:40pm 9
mph
1023mb 52f
4:30pm 5 13 mph 1023mb 52f
4:20pm  -  3 mph 1023mb 55f
4:10pm  -  9 mph 1023mb 55f
4:00pm  -  mph 1023.4mb 55f
3:50pm  -  3 mph 1023mb 56f
3:40pm 5 10 mph 1023.4mb 54f
3:30pm 5 10 mph 1023.4mb 56f
3:20pm 2 6 mph 1023.4mb 57f
3:10pm 1 7 mph 1023.7mb 57f
3:00pm 6
mph
1023.7mb 59f
2:50pm 5 6 mph 1023.7mb 57f
2:40pm 5 7 mph 1023.7mb 56f
2:30pm 6 7 mph 1023.7mb 57f
2:20pm 6 7 mph 1023.7mb 60f
2:10pm 6
mph
1024mb 62f
2:00pm 5
mph
1023.7mb 62f
1:50pm 5 7 mph 1023.7mb 64f
1:40pm 6 7 mph 1023.7mb 64f
1:30pm 5 7 mph 1023.7mb 58f
1:20pm 6 7 mph 1024mb 65f
1:10pm 5
mph
1024mb 60f
1:00pm 3 5 mph 1024mb 63f
12:50pm 3 6 mph 1023.7mb 60f
12:40pm 3 8 mph 1024mb 60f
12:30pm 9
mph
1024mb 61f
12:20pm 3 7 mph 1024mb 58f
12:10pm 5 8 mph 1024mb 59f
12:00pm 8 11 mph 1024mb 60f
11:50am 11 13 mph 1024mb 56f
11:40am 10
mph
1024mb 51f
11:30am 9 10 mph 1024mb 57f
11:20am 9 10 mph 1024mb 56f
11:10am 9 10 mph 1024mb 58f
11:00am 10 11 mph 1024mb 56f
10:50am 11 13 mph 1024mb 57f
10:40am 13 14 mph 1024mb 53f
10:30am 10 11 mph 1024mb 51f
10:20am 9
mph
1024mb 53f
10:10am 7 9 mph 1024mb 55f
10:00am 9
mph
1024mb 53f
9:50am 9 10 mph 1024mb 52f
9:40am 10 11 mph 1024mb 50f
9:30am 8 10 mph 1024mb 53f
9:20am 9 11 mph 1024mb 50f
9:10am 8 10 mph 1024mb 56f
9:00am 8 10 mph 1024mb 57f
8:50am  -  mph 1024mb 59f
8:40am  -  mph 1024mb 56f
8:30am  -  mph 1024mb 56f
8:20am  -  5 mph 1023.7mb 56f
8:10am 3 9 mph 1023.7mb 59f
8:00am 8 9 mph 1023.7mb 62f
7:50am 7 10 mph 1023.7mb 64f
7:40am 9 13 mph 1023.7mb 63f
7:30am 2 7 mph 1023.7mb 62f
7:20am 3 7 mph 1023.7mb 59f
7:10am 7 8 mph 1023.4mb -
7:00am 6 17 mph 1023.4mb -
6:50am 7 8 mph 1023.4mb -
6:40am 5 8 mph 1023.4mb -
6:30am 2 7 mph 1023.4mb 64f
6:20am 5 11 mph 1023mb 63f
6:10am 8 11 mph 1023mb 62f
6:00am 6 11 mph 1023mb 60f
5:50am 3 8 mph 1023mb 60f
5:40am 3 10 mph 1022.7mb 61f
5:30am 7 10 mph 1022.7mb 62f
5:20am 7 9 mph 1022.4mb 61f
5:10am 5 9 mph 1022.4mb 61f
5:00am 3 7 mph 1022.4mb 60f
4:50am 2 7 mph 1022.4mb 61f
4:40am 6 9 mph 1022mb 62f
4:30am 7 9 mph 1022mb 63f
4:20am 7 10 mph 1021.7mb 63f
4:10am 6 10 mph 1021.7mb 63f
4:00am 8 11 mph 1021.7mb 63f
3:50am 7 10 mph 1021.7mb 63f
3:40am 6 10 mph 1021.3mb 63f
3:30am 7 10 mph 1021.3mb 63f
3:20am 8 13 mph 1021.3mb 64f
3:10am 8 11 mph 1021.3mb 64f
3:00am 6 11 mph 1021.3mb 64f
2:50am 7 14 mph 1021.3mb 65f
2:40am 9 14 mph 1021.3mb 65f
2:30am 9 13 mph 1021.3mb 65f
2:20am 10 16 mph 1021mb 66f
2:10am 11 15 mph 1021mb 66f
2:00am 13 17 mph 1021mb 66f
1:50am 11 16 mph 1021mb 66f
1:40am 14 17 mph 1021mb 67f
1:30am 11 16 mph 1021mb 66f
1:20am 13 17 mph 1021mb 67f
1:10am 10 16 mph 1020.7mb 67f
1:00am 10 17 mph 1020.7mb 67f
12:50am 9 17 mph 1020.7mb 68f
12:40am 11 16 mph 1020.7mb 68f
12:30am 10 15 mph 1020.7mb 67f
12:20am 11 17 mph 1020.7mb 67f
12:10am 9 15 mph 1020.3mb 67f
12:00am 8 13 mph 1020.3mb 67f
Tue 07/22 11:50pm 8 13 mph 1020.3mb 67f
11:40pm 8 11 mph 1020mb 67f
11:30pm 9 15 mph 1020mb 67f
11:20pm 9 13 mph 1019.6mb 67f
11:10pm 9 15 mph 1019.6mb 67f
11:00pm 9 13 mph 1019.6mb 67f
10:50pm 7 10 mph 1019.6mb 67f
10:40pm 7 10 mph 1019.6mb 68f
10:30pm 7 10 mph 1019.6mb 67f
10:20pm 8 10 mph 1019.6mb 67f
10:10pm 7 10 mph 1019.6mb 67f
10:00pm 6 10 mph 1019.6mb 67f
9:50pm 5 8 mph 1019.6mb -
9:40pm 6 8 mph 1019.6mb -
9:30pm  -  mph 1019.3mb -
9:20pm  -  7 mph 1019.3mb -
9:10pm 6 7 mph 1019.3mb -
9:00pm 7
mph
1019.3mb -
8:50pm 5 6 mph 1019.3mb -
8:40pm 5
mph
1019.3mb -
8:30pm  -  mph 1019.3mb -
8:20pm  -  mph 1019mb -
8:10pm  -  2 mph 1019mb -
8:00pm  -  5 mph 1019mb -
7:50pm 3 8 mph 1018.6mb -
7:40pm 5 9 mph 1018.6mb 73f
7:30pm 2 6 mph 1018.6mb 73f
7:20pm 3 10 mph 1018.3mb 74f
7:10pm 5 9 mph 1018.3mb 74f
7:00pm 6 10 mph 1017.9mb 75f
6:50pm 7 14 mph 1017.9mb 75f
6:40pm 10 18 mph 1017.9mb 74f
6:30pm 10 20 mph 1017.9mb 74f
6:20pm 9 18 mph 1017.6mb 75f
6:10pm 8 15 mph 1017.6mb 75f
6:00pm 11 17 mph 1017.6mb 74f
5:50pm 8 20 mph 1017.3mb 75f
5:40pm 13 18 mph 1017.3mb 76f
5:30pm 7 18 mph 1016.9mb 76f
5:20pm 16 24 mph 1016.9mb 75f
5:10pm 6 20 mph 1016.6mb 75f
5:00pm 16 26 mph 1016.6mb 73f
4:50pm 8 22 mph 1016.6mb 78f
4:40pm 15 24 mph 1016.3mb 76f
4:30pm 13 18 mph 1015.9mb 75f
4:20pm 8 22 mph 1015.9mb 77f
4:10pm 11 18 mph 1015.9mb 77f
4:00pm 11 22 mph 1015.6mb 77f
3:50pm 13 21 mph 1015.6mb 75f
3:40pm 11 25 mph 1015.6mb 75f
3:30pm 16 21 mph 1015.2mb 77f
3:20pm 9 17 mph 1015.2mb 76f
3:10pm 10 20 mph 1014.9mb 75f
3:00pm 16 28 mph 1014.6mb 75f
2:50pm 15 21 mph 1014.6mb 76f
2:40pm 13 22 mph 1014.2mb 77f
2:30pm 10 29 mph 1013.9mb 77f
2:20pm 11 28 mph 1013.9mb 77f
2:10pm 20 37 mph 1013.5mb 75f
2:00pm 20 29 mph 1013.2mb 76f
1:50pm 21 30 mph 1012.9mb 76f
1:49pm 11 30 mph 1012.9mb 76f
1:40pm 17 31 mph 1012.9mb 76f
1:30pm 22 37 mph 1012.2mb 76f
1:20pm 17 31 mph 1012.2mb 75f
1:10pm 14 28 mph 1012.2mb 74f
1:00pm 14 28 mph 1012.2mb 73f
12:40pm 20 30 mph 1011.9mb 73f
12:33pm 18 30 mph 1011.5mb 74f
12:30pm 16 24 mph 1011.9mb 74f
12:20pm 11 22 mph 1011.5mb 76f
12:10pm 13 23 mph 1011.2mb 76f
12:00pm 14 25 mph 1011.2mb 76f
11:50am 7 23 mph 1011.2mb 75f
11:40am 9 25 mph 1011.2mb 73f
11:30am 14 23 mph 1010.8mb 73f
11:20am 8 20 mph 1010.8mb 73f
11:10am 13 29 mph 1010.5mb 74f
11:00am 11 24 mph 1010.5mb 74f
10:50am 14 23 mph 1009.8mb 75f
10:40am 15 28 mph 1009.5mb -
10:30am 13 29 mph 1009.1mb -
10:22am 11 29 mph 1008.5mb -
10:20am 8 28 mph 1009.1mb -
10:10am 14 26 mph 1008.8mb -
10:00am 17 28 mph 1008.8mb -
9:50am 8 23 mph 1008.8mb -
9:40am 15 25 mph 1008.8mb -
9:30am 13 20 mph 1008.8mb -
9:20am 8 20 mph 1008.5mb -
9:10am 13 24 mph 1008.1mb -
9:00am 10 18 mph 1007.8mb -
8:50am 13 17 mph 1007.8mb -
8:40am 7 15 mph 1007.5mb -
8:30am 8 21 mph 1007.1mb -
8:20am 7 13 mph 1007.1mb -
8:10am 7 16 mph 1007.1mb -
8:00am 10 16 mph 1007.1mb -
7:50am 13 21 mph 1006.8mb -
7:40am 11 18 mph 1006.4mb -
7:30am 10 17 mph 1006.1mb -
7:20am 16 21 mph 1005.8mb -
7:10am 14 18 mph 1006.1mb 51f
7:00am 14 15 mph 1005.8mb 51f
6:50am 14 15 mph 1005.4mb 54f
6:40am 9 11 mph 1005.4mb 56f
6:30am 11 13 mph 1005.4mb 59f
6:20am 10 11 mph 1005.4mb 59f
6:10am 11
mph
1005.4mb 55f
6:00am 8 10 mph 1005.4mb 58f
5:50am 6 7 mph 1005.4mb 59f
5:40am 6 8 mph 1005.8mb 61f
5:30am 7 9 mph 1005.8mb 63f
5:20am 5 8 mph 1005.4mb 63f
5:10am 6 8 mph 1005.4mb 63f
5:00am 6 7 mph 1005.1mb 58f
4:40am 6 11 mph 1005.1mb 62f
4:30am 8 9 mph 1004.7mb 60f
4:20am 9 10 mph 1004.7mb 62f
4:10am 8 23 mph 1004.7mb 62f
4:00am 18 29 mph 1005.4mb 59f
3:50am 16 23 mph 1003.7mb 53f
3:40am 16 32 mph 1004.4mb 51f
3:30am 22 32 mph 1005.4mb 56f
3:29am 17 30 mph 1005.4mb 57f
3:20am 13 23 mph 1006.1mb 57f
3:10am 9 18 mph 1006.8mb 58f
3:00am 20 24 mph 1007.5mb 55f
2:50am 8 18 mph 1007.8mb 60f
2:40am 18 20 mph 1008.1mb 59f
2:30am 10 17 mph 1008.5mb 65f
2:20am 15 21 mph 1009.1mb 64f
2:10am 15 20 mph 1009.8mb 60f
2:00am 7 13 mph 1009.8mb 58f
1:50am 7 10 mph 1008.1mb 60f
1:40am 6 8 mph 1008.5mb 60f
1:30am 5 9 mph 1008.8mb 60f
1:20am 7 11 mph 1008.5mb 60f
1:10am 7 13 mph 1008.5mb 60f
1:00am 8 17 mph 1008.5mb 60f
12:50am 11 17 mph 1008.5mb 59f
12:40am 9 14 mph 1008.1mb 60f
12:30am 8 11 mph 1008.5mb 61f
12:20am 7 13 mph 1008.5mb 62f
12:10am 10 16 mph 1008.8mb 62f
12:00am 10 15 mph 1008.8mb 63f
Mon 07/21 11:50pm 9 14 mph 1009.1mb 64f
11:40pm 9 16 mph 1009.1mb 64f
11:30pm 10 15 mph 1009.1mb 65f
11:20pm 11 15 mph 1009.1mb 64f
11:10pm 11 17 mph 1009.5mb 63f
11:00pm 9 14 mph 1009.5mb 63f
10:50pm 9 11 mph 1009.5mb 63f
10:40pm 8 14 mph 1009.5mb 63f
10:30pm 9 11 mph 1009.5mb 64f
10:20pm 6 10 mph 1009.8mb 65f
10:10pm 8 13 mph 1009.8mb 63f
10:00pm 9 16 mph 1009.8mb 62f
9:50pm 11 15 mph 1010.2mb 61f
9:40pm 10 14 mph 1010.2mb 64f
9:30pm 9 14 mph 1010.5mb 64f
9:20pm 7 11 mph 1010.5mb 64f
9:10pm 8 13 mph 1010.2mb 64f
9:00pm 8 14 mph 1010.2mb 63f
8:50pm 11 16 mph 1010.2mb 63f
8:40pm 6 14 mph 1010.5mb 62f
8:30pm 7 11 mph 1010.2mb 61f
8:20pm 7 10 mph 1010.5mb 62f
8:10pm 7 10 mph 1010.5mb 61f
8:00pm 3 9 mph 1010.8mb 60f
7:50pm 6 8 mph 1010.8mb 60f
7:40pm 3 7 mph 1010.8mb 58f
7:30pm 5 9 mph 1010.8mb 58f
7:20pm 6 7 mph 1010.8mb 62f
7:10pm 3 10 mph 1010.8mb 66f
7:00pm 8 13 mph 1010.8mb 64f
6:50pm 6 11 mph 1010.8mb 63f
6:40pm 3 7 mph 1010.8mb 63f
6:30pm 2 9 mph 1010.8mb 62f
6:20pm 7 10 mph 1010.8mb 60f
6:10pm  -  2 mph 1011.2mb 62f
6:00pm 2 6 mph 1011.2mb 62f
5:50pm 5 7 mph 1010.8mb 62f
5:40pm 5 6 mph 1010.8mb 63f
5:30pm 5 6 mph 1010.8mb 64f
5:20pm 6
mph
1011.2mb 64f
5:10pm 6 7 mph 1011.2mb 64f
5:00pm 6 7 mph 1011.2mb 64f
4:50pm 6
mph
1011.2mb 64f
4:40pm 6 8 mph 1011.2mb 65f
4:30pm 8 9 mph 1011.2mb 70f
4:20pm 9
mph
1011.2mb 70f
4:10pm 9 10 mph 1011.2mb 72f
4:00pm 9 10 mph 1011.5mb 72f